createdAt,value
2019-03-16T00:00:14.600Z,0.40
2019-03-16T00:02:43.013Z,0.40
2019-03-16T00:05:11.672Z,0.30
2019-03-16T00:07:40.089Z,0.40
2019-03-16T00:10:08.593Z,0.37
2019-03-16T00:12:37.294Z,0.40
2019-03-16T00:15:07.283Z,0.40
2019-03-16T00:17:35.945Z,0.40
2019-03-16T00:20:07.905Z,0.40
2019-03-16T00:22:36.337Z,0.47
2019-03-16T00:25:06.742Z,0.57
2019-03-16T00:27:35.149Z,0.40
2019-03-16T00:30:05.432Z,0.40
2019-03-16T00:32:33.858Z,0.50
2019-03-16T00:35:02.522Z,0.40
2019-03-16T00:37:31.177Z,0.40
2019-03-16T00:39:59.601Z,0.53
2019-03-16T00:42:28.267Z,0.40
2019-03-16T00:44:56.680Z,0.30
2019-03-16T00:47:25.110Z,0.40
2019-03-16T00:49:53.530Z,0.50
2019-03-16T00:52:21.964Z,0.30
2019-03-16T00:54:50.389Z,0.40
2019-03-16T00:57:19.062Z,0.40
2019-03-16T00:59:47.493Z,0.40
2019-03-16T01:02:26.633Z,0.37
2019-03-16T01:04:46.323Z,0.40
2019-03-16T01:07:14.774Z,0.40
2019-03-16T01:09:43.763Z,0.30
2019-03-16T01:12:12.378Z,0.40
2019-03-16T01:14:41.012Z,0.30
2019-03-16T01:17:09.461Z,0.30
2019-03-16T01:19:37.897Z,0.40
2019-03-16T01:22:06.309Z,0.60
2019-03-16T01:24:34.742Z,0.40
2019-03-16T01:27:03.149Z,0.40
2019-03-16T01:29:31.593Z,0.40
2019-03-16T01:32:00.005Z,0.40
2019-03-16T01:34:28.435Z,0.40
2019-03-16T01:36:57.097Z,0.40
2019-03-16T01:39:25.522Z,1.00
2019-03-16T01:41:53.917Z,0.37
2019-03-16T01:44:22.354Z,0.40
2019-03-16T01:46:50.793Z,0.50
2019-03-16T01:49:19.220Z,0.40
2019-03-16T01:51:47.646Z,0.50
2019-03-16T01:54:16.302Z,0.50
2019-03-16T01:56:44.969Z,0.50
2019-03-16T01:59:13.686Z,0.47
2019-03-16T02:01:42.106Z,0.40
2019-03-16T02:04:10.518Z,0.40
2019-03-16T02:06:38.964Z,0.40
2019-03-16T02:09:07.870Z,0.50
2019-03-16T02:11:36.336Z,0.50
2019-03-16T02:14:04.815Z,0.40
2019-03-16T02:16:33.462Z,0.40
2019-03-16T02:19:01.910Z,0.40
2019-03-16T02:21:30.576Z,0.37
2019-03-16T02:23:59.073Z,0.50
2019-03-16T02:26:27.777Z,0.40
2019-03-16T02:28:56.186Z,0.40
2019-03-16T02:31:24.649Z,0.40
2019-03-16T02:33:53.127Z,0.50
2019-03-16T02:36:21.565Z,0.40
2019-03-16T02:38:49.971Z,0.40
2019-03-16T02:41:18.639Z,0.40
2019-03-16T02:43:47.078Z,0.40
2019-03-16T02:46:15.498Z,0.40
2019-03-16T02:48:43.897Z,0.40
2019-03-16T02:51:12.569Z,0.60
2019-03-16T02:53:41.002Z,0.40
2019-03-16T02:56:09.422Z,0.50
2019-03-16T02:58:37.842Z,0.30
2019-03-16T03:01:06.279Z,0.50
2019-03-16T03:03:34.718Z,0.40
2019-03-16T03:06:03.157Z,0.40
2019-03-16T03:08:31.875Z,0.40
2019-03-16T03:11:00.560Z,0.40
2019-03-16T03:13:29.016Z,0.33
2019-03-16T03:15:57.680Z,0.67
2019-03-16T03:18:26.387Z,0.40
2019-03-16T03:20:54.820Z,0.30
2019-03-16T03:23:23.482Z,0.40
2019-03-16T03:25:51.927Z,0.47
2019-03-16T03:28:20.599Z,0.40
2019-03-16T03:30:49.129Z,0.30
2019-03-16T03:33:17.610Z,0.40
2019-03-16T03:35:46.040Z,0.40
2019-03-16T03:38:14.445Z,0.40
2019-03-16T03:40:42.881Z,0.33
2019-03-16T03:43:11.307Z,0.47
2019-03-16T03:45:39.722Z,0.40
2019-03-16T03:48:08.130Z,0.30
2019-03-16T03:50:36.778Z,0.30
2019-03-16T03:53:05.478Z,0.40
2019-03-16T03:55:33.897Z,0.47
2019-03-16T03:58:02.418Z,0.40
2019-03-16T04:00:30.902Z,0.90
2019-03-16T04:02:59.306Z,0.37
2019-03-16T04:05:27.797Z,0.37
2019-03-16T04:07:56.223Z,0.43
2019-03-16T04:10:24.866Z,0.50
2019-03-16T04:12:53.406Z,0.40
2019-03-16T04:15:21.831Z,0.40
2019-03-16T04:17:50.499Z,0.40
2019-03-16T04:20:18.922Z,0.40
2019-03-16T04:22:47.339Z,0.40
2019-03-16T04:25:15.754Z,0.40
2019-03-16T04:27:44.225Z,0.50
2019-03-16T04:30:13.025Z,0.30
2019-03-16T04:32:41.476Z,0.50
2019-03-16T04:35:10.152Z,0.30
2019-03-16T04:37:38.569Z,0.30
2019-03-16T04:40:09.284Z,0.60
2019-03-16T04:42:37.706Z,0.40
2019-03-16T04:45:12.706Z,0.30
2019-03-16T04:47:41.136Z,0.40
2019-03-16T04:50:11.458Z,0.30
2019-03-16T04:52:40.138Z,0.40
2019-03-16T04:55:09.222Z,0.37
2019-03-16T04:57:37.650Z,0.37
2019-03-16T05:00:11.243Z,0.40
2019-03-16T05:02:39.885Z,0.40
2019-03-16T05:05:08.420Z,0.40
2019-03-16T05:07:36.847Z,0.30
2019-03-16T05:10:08.619Z,0.40
2019-03-16T05:12:37.031Z,0.40
2019-03-16T05:15:07.181Z,0.30
2019-03-16T05:17:35.609Z,0.30
2019-03-16T05:20:06.163Z,0.40
2019-03-16T05:22:34.585Z,0.30
2019-03-16T05:25:03.167Z,0.40
2019-03-16T05:27:31.591Z,0.40
2019-03-16T05:30:00.374Z,0.40
2019-03-16T05:32:28.858Z,0.60
2019-03-16T05:34:57.268Z,0.40
2019-03-16T05:37:25.938Z,0.33
2019-03-16T05:39:54.605Z,0.30
2019-03-16T05:42:23.237Z,0.40
2019-03-16T05:44:51.689Z,0.40
2019-03-16T05:47:20.110Z,0.53
2019-03-16T05:49:48.526Z,0.40
2019-03-16T05:52:16.997Z,0.40
2019-03-16T05:54:45.433Z,0.30
2019-03-16T05:57:14.069Z,0.33
2019-03-16T05:59:42.518Z,0.40
2019-03-16T06:02:10.937Z,0.40
2019-03-16T06:04:39.354Z,0.30
2019-03-16T06:07:07.782Z,0.30
2019-03-16T06:09:36.434Z,0.40
2019-03-16T06:12:05.117Z,0.40
2019-03-16T06:14:33.765Z,0.37
2019-03-16T06:17:02.178Z,0.30
2019-03-16T06:19:30.585Z,0.30
2019-03-16T06:21:59.014Z,0.40
2019-03-16T06:24:28.213Z,0.30
2019-03-16T06:26:57.067Z,0.40
2019-03-16T06:29:25.722Z,0.40
2019-03-16T06:31:54.146Z,0.40
2019-03-16T06:34:22.562Z,0.37
2019-03-16T06:36:50.985Z,0.30
2019-03-16T06:39:19.406Z,0.43
2019-03-16T06:41:47.828Z,0.40
2019-03-16T06:44:16.234Z,0.40
2019-03-16T06:46:44.657Z,0.40
2019-03-16T06:49:13.090Z,0.47
2019-03-16T06:51:41.517Z,0.40
2019-03-16T06:54:09.930Z,0.30
2019-03-16T06:56:38.354Z,0.30
2019-03-16T06:59:06.790Z,0.47
2019-03-16T07:01:35.266Z,0.40
2019-03-16T07:04:03.678Z,0.47
2019-03-16T07:06:32.103Z,0.50
2019-03-16T07:09:00.521Z,0.40
2019-03-16T07:11:28.950Z,0.50
2019-03-16T07:13:57.372Z,0.40
2019-03-16T07:16:25.793Z,0.50
2019-03-16T07:18:59.084Z,0.40
2019-03-16T07:21:24.660Z,0.30
2019-03-16T07:23:53.105Z,0.37
2019-03-16T07:26:21.530Z,0.33
2019-03-16T07:28:50.185Z,0.40
2019-03-16T07:31:18.870Z,0.40
2019-03-16T07:33:47.288Z,0.40
2019-03-16T07:36:15.715Z,0.40
2019-03-16T07:38:44.137Z,0.50
2019-03-16T07:41:12.617Z,0.50
2019-03-16T07:43:41.059Z,0.40
2019-03-16T07:46:09.474Z,0.60
2019-03-16T07:48:37.901Z,0.50
2019-03-16T07:51:06.386Z,0.50
2019-03-16T07:53:35.062Z,0.40
2019-03-16T07:56:03.477Z,0.40
2019-03-16T07:58:31.906Z,0.40
2019-03-16T08:01:03.241Z,0.43
2019-03-16T08:03:30.738Z,0.50
2019-03-16T08:05:59.150Z,0.40
2019-03-16T08:08:27.586Z,0.60
2019-03-16T08:10:56.089Z,0.40
2019-03-16T08:13:24.775Z,0.40
2019-03-16T08:15:53.380Z,0.40
2019-03-16T08:18:21.819Z,0.40
2019-03-16T08:20:50.266Z,0.40
2019-03-16T08:23:20.659Z,0.30
2019-03-16T08:25:49.341Z,0.37
2019-03-16T08:28:17.775Z,0.50
2019-03-16T08:30:46.268Z,0.60
2019-03-16T08:33:14.699Z,0.50
2019-03-16T08:35:43.343Z,0.50
2019-03-16T08:38:11.883Z,0.57
2019-03-16T08:40:40.306Z,0.40
2019-03-16T08:43:08.745Z,0.50
2019-03-16T08:45:37.161Z,0.40
2019-03-16T08:48:05.590Z,0.50
2019-03-16T08:50:34.012Z,0.40
2019-03-16T08:53:02.689Z,0.40
2019-03-16T08:55:31.142Z,0.30
2019-03-16T08:58:06.026Z,0.67
2019-03-16T09:00:29.715Z,0.40
2019-03-16T09:02:58.159Z,0.50
2019-03-16T09:05:26.807Z,0.40
2019-03-16T09:07:55.519Z,0.40
2019-03-16T09:10:23.944Z,0.40
2019-03-16T09:12:55.236Z,0.40
2019-03-16T09:15:23.023Z,0.60
2019-03-16T09:17:51.458Z,0.50
2019-03-16T09:20:22.603Z,0.50
2019-03-16T09:22:51.708Z,0.40
2019-03-16T09:25:20.161Z,0.43
2019-03-16T09:27:50.526Z,0.40
2019-03-16T09:30:19.255Z,0.50
2019-03-16T09:32:47.701Z,0.40
2019-03-16T09:35:20.890Z,0.53
2019-03-16T09:37:49.610Z,0.30
2019-03-16T09:40:19.782Z,0.37
2019-03-16T09:42:48.728Z,0.40
2019-03-16T09:45:21.609Z,0.40
2019-03-16T09:47:50.834Z,0.47
2019-03-16T09:50:19.338Z,0.40
2019-03-16T09:52:49.923Z,0.40
2019-03-16T09:55:19.593Z,0.50
2019-03-16T09:57:48.187Z,0.40
2019-03-16T10:00:18.964Z,0.60
2019-03-16T10:02:47.596Z,0.60
2019-03-16T10:05:16.291Z,0.60
2019-03-16T10:07:44.791Z,0.50
2019-03-16T10:10:14.928Z,0.60
2019-03-16T10:12:44.914Z,0.50
2019-03-16T10:15:14.285Z,0.50
2019-03-16T10:17:42.936Z,0.40
2019-03-16T10:20:12.840Z,0.40
2019-03-16T10:22:41.533Z,0.60
2019-03-16T10:25:10.170Z,0.50
2019-03-16T10:27:40.440Z,0.60
2019-03-16T10:30:10.226Z,0.50
2019-03-16T10:32:38.522Z,0.50
2019-03-16T10:35:07.005Z,0.40
2019-03-16T10:37:35.274Z,0.73
2019-03-16T10:40:06.693Z,0.50
2019-03-16T10:42:34.901Z,0.50
2019-03-16T10:45:03.880Z,0.60
2019-03-16T10:47:32.182Z,0.63
2019-03-16T10:50:00.385Z,0.40
2019-03-16T10:52:28.626Z,0.60
2019-03-16T10:54:56.847Z,0.53
2019-03-16T10:57:25.144Z,0.60
2019-03-16T10:59:53.292Z,0.60
2019-03-16T11:02:21.909Z,0.50
2019-03-16T11:04:50.190Z,0.40
2019-03-16T11:07:18.473Z,0.50
2019-03-16T11:09:46.683Z,0.40
2019-03-16T11:12:15.847Z,0.50
2019-03-16T11:14:44.051Z,0.40
2019-03-16T11:17:12.315Z,0.43
2019-03-16T11:19:40.524Z,0.50
2019-03-16T11:22:10.214Z,0.50
2019-03-16T11:24:38.391Z,0.40
2019-03-16T11:27:10.233Z,0.60
2019-03-16T11:29:38.607Z,0.50
2019-03-16T11:32:06.874Z,0.60
2019-03-16T11:34:35.196Z,0.40
2019-03-16T11:37:04.984Z,0.60
2019-03-16T11:39:33.308Z,0.40
2019-03-16T11:42:01.581Z,0.50
2019-03-16T11:44:31.083Z,0.50
2019-03-16T11:46:59.661Z,0.50
2019-03-16T11:49:30.436Z,0.40
2019-03-16T11:51:58.654Z,0.40
2019-03-16T11:54:26.868Z,0.40
2019-03-16T11:56:55.096Z,0.60
2019-03-16T11:59:23.422Z,0.50
2019-03-16T12:01:51.716Z,0.50
2019-03-16T12:04:19.882Z,0.50
2019-03-16T12:06:48.108Z,0.50
2019-03-16T12:09:16.412Z,0.50
2019-03-16T12:11:45.698Z,0.50
2019-03-16T12:14:14.075Z,0.40
2019-03-16T12:16:42.325Z,0.53
2019-03-16T12:19:11.807Z,0.47
2019-03-16T12:21:39.977Z,0.40
2019-03-16T12:24:08.415Z,0.60
2019-03-16T12:26:36.681Z,0.50
2019-03-16T12:29:04.842Z,0.60
2019-03-16T12:31:33.034Z,0.50
2019-03-16T12:34:02.661Z,0.50
2019-03-16T12:36:30.838Z,0.47
2019-03-16T12:38:59.311Z,0.40
2019-03-16T12:41:27.463Z,0.40
2019-03-16T12:43:55.688Z,0.40
2019-03-16T12:46:23.956Z,0.50
2019-03-16T12:48:52.191Z,0.40
2019-03-16T12:51:20.448Z,0.57
2019-03-16T12:53:48.773Z,0.50
2019-03-16T12:56:16.914Z,0.40
2019-03-16T12:58:46.255Z,0.60
2019-03-16T13:01:14.490Z,0.80
2019-03-16T13:03:42.828Z,0.50
2019-03-16T13:06:11.420Z,0.50
2019-03-16T13:08:39.869Z,0.50
2019-03-16T13:11:08.099Z,0.53
2019-03-16T13:13:36.224Z,0.60
2019-03-16T13:16:05.644Z,0.60
2019-03-16T13:18:33.814Z,0.40
2019-03-16T13:21:02.163Z,0.50
2019-03-16T13:23:30.596Z,0.73
2019-03-16T13:25:59.071Z,0.80
2019-03-16T13:28:27.804Z,0.50
2019-03-16T13:30:57.599Z,0.60
2019-03-16T13:33:25.776Z,0.53
2019-03-16T13:35:54.182Z,0.53
2019-03-16T13:38:22.653Z,0.50
2019-03-16T13:40:50.994Z,0.50
2019-03-16T13:43:20.400Z,0.60
2019-03-16T13:45:48.543Z,0.50
2019-03-16T13:48:16.729Z,0.50
2019-03-16T13:50:45.525Z,0.40
2019-03-16T13:53:13.745Z,0.40
2019-03-16T13:55:43.023Z,0.70
2019-03-16T13:58:11.160Z,0.50
2019-03-16T14:00:39.304Z,0.63
2019-03-16T14:03:07.752Z,0.60
2019-03-16T14:05:35.922Z,0.50
2019-03-16T14:08:04.430Z,0.50
2019-03-16T14:10:33.082Z,0.60
2019-03-16T14:13:01.168Z,0.60
2019-03-16T14:15:29.512Z,0.50
2019-03-16T14:17:58.245Z,0.40
2019-03-16T14:20:26.587Z,0.60
2019-03-16T14:22:55.227Z,0.57
2019-03-16T14:25:24.406Z,0.50
2019-03-16T14:27:52.496Z,0.53
2019-03-16T14:30:35.131Z,0.60
2019-03-16T14:32:50.704Z,0.40
2019-03-16T14:35:19.094Z,0.40
2019-03-16T14:37:47.170Z,0.60
2019-03-16T14:40:15.825Z,0.60
2019-03-16T14:42:43.894Z,0.50
2019-03-16T14:45:15.644Z,0.50
2019-03-16T14:47:43.783Z,0.70
2019-03-16T14:50:18.471Z,0.50
2019-03-16T14:52:46.643Z,0.60
2019-03-16T14:55:14.933Z,0.60
2019-03-16T14:57:43.080Z,0.70
2019-03-16T15:00:17.645Z,0.60
2019-03-16T15:02:46.638Z,0.67
2019-03-16T15:05:15.110Z,0.60
2019-03-16T15:07:43.248Z,0.60
2019-03-16T15:10:12.935Z,0.60
2019-03-16T15:12:41.078Z,0.80
2019-03-16T15:15:10.763Z,0.67
2019-03-16T15:17:38.900Z,0.70
2019-03-16T15:20:08.427Z,0.50
2019-03-16T15:22:36.818Z,0.70
2019-03-16T15:25:06.046Z,0.50
2019-03-16T15:27:34.507Z,0.60
2019-03-16T15:30:02.730Z,0.67
2019-03-16T15:32:30.812Z,0.57
2019-03-16T15:34:58.975Z,0.60
2019-03-16T15:37:27.380Z,0.57
2019-03-16T15:39:55.524Z,0.50
2019-03-16T15:42:23.665Z,0.70
2019-03-16T15:44:51.821Z,0.50
2019-03-16T15:47:19.918Z,0.50
2019-03-16T15:49:48.301Z,0.73
2019-03-16T15:52:16.397Z,0.60
2019-03-16T15:54:44.532Z,0.53
2019-03-16T15:57:12.673Z,0.40
2019-03-16T15:59:40.839Z,0.83
2019-03-16T16:02:08.961Z,0.67
2019-03-16T16:04:37.108Z,0.50
2019-03-16T16:07:05.303Z,0.50
2019-03-16T16:09:33.491Z,0.40
2019-03-16T16:12:01.627Z,0.50
2019-03-16T16:14:29.769Z,0.60
2019-03-16T16:16:58.163Z,0.60
2019-03-16T16:19:26.319Z,1.00
2019-03-16T16:21:54.441Z,0.73
2019-03-16T16:24:22.542Z,0.67
2019-03-16T16:26:50.919Z,0.40
2019-03-16T16:29:19.053Z,0.50
2019-03-16T16:31:47.177Z,0.67
2019-03-16T16:34:15.539Z,0.70
2019-03-16T16:36:43.638Z,0.40
2019-03-16T16:39:14.432Z,0.90
2019-03-16T16:41:42.079Z,0.60
2019-03-16T16:44:10.195Z,0.60
2019-03-16T16:46:38.295Z,0.53
2019-03-16T16:49:06.419Z,0.60
2019-03-16T16:51:34.519Z,0.80
2019-03-16T16:54:02.643Z,0.77
2019-03-16T16:56:30.804Z,0.73
2019-03-16T16:58:58.892Z,0.77
2019-03-16T17:01:29.534Z,0.80
2019-03-16T17:03:57.158Z,1.13
2019-03-16T17:06:25.278Z,0.90
2019-03-16T17:08:53.383Z,1.13
2019-03-16T17:11:21.494Z,1.10
2019-03-16T17:13:49.638Z,1.20
2019-03-16T17:16:17.806Z,0.90
2019-03-16T17:18:45.993Z,1.17
2019-03-16T17:21:14.102Z,1.23
2019-03-16T17:23:42.246Z,1.30
2019-03-16T17:26:10.346Z,1.10
2019-03-16T17:28:38.469Z,1.47
2019-03-16T17:31:08.099Z,1.17
2019-03-16T17:33:36.464Z,1.30
2019-03-16T17:36:04.555Z,0.97
2019-03-16T17:38:32.885Z,1.13
2019-03-16T17:41:00.986Z,1.00
2019-03-16T17:43:29.141Z,1.00
2019-03-16T17:45:57.485Z,0.77
2019-03-16T17:48:25.570Z,0.70
2019-03-16T17:50:53.666Z,0.80
2019-03-16T17:53:21.763Z,0.80
2019-03-16T17:55:49.859Z,1.27
2019-03-16T17:58:17.948Z,1.00
2019-03-16T18:00:46.366Z,0.70
2019-03-16T18:03:14.719Z,0.60
2019-03-16T18:05:42.818Z,1.23
2019-03-16T18:08:11.151Z,0.60
2019-03-16T18:10:39.498Z,0.73
2019-03-16T18:13:07.582Z,1.30
2019-03-16T18:15:35.689Z,1.37
2019-03-16T18:18:04.051Z,1.10
2019-03-16T18:20:32.152Z,1.20
2019-03-16T18:23:00.246Z,0.97
2019-03-16T18:25:28.612Z,0.90
2019-03-16T18:27:56.691Z,0.70
2019-03-16T18:30:44.378Z,0.80
2019-03-16T18:33:12.487Z,0.80
2019-03-16T18:35:40.827Z,0.90
2019-03-16T18:38:08.922Z,1.27
2019-03-16T18:40:37.273Z,0.97
2019-03-16T18:43:05.374Z,0.87
2019-03-16T18:45:33.466Z,0.80
2019-03-16T18:48:01.818Z,0.70
2019-03-16T18:50:29.905Z,1.27
2019-03-16T18:52:58.254Z,1.00
2019-03-16T18:55:26.603Z,1.00
2019-03-16T18:57:55.039Z,2.13
2019-03-16T19:00:23.141Z,2.37
2019-03-16T19:02:51.249Z,2.10
2019-03-16T19:05:19.394Z,1.30
2019-03-16T19:07:47.484Z,1.80
2019-03-16T19:10:15.941Z,2.03
2019-03-16T19:12:44.313Z,2.50
2019-03-16T19:15:13.947Z,2.60
2019-03-16T19:17:42.035Z,2.50
2019-03-16T19:20:11.096Z,2.13
2019-03-16T19:22:39.173Z,2.13
2019-03-16T19:25:08.853Z,1.60
2019-03-16T19:27:36.935Z,1.37
2019-03-16T19:30:06.563Z,1.13
2019-03-16T19:32:37.661Z,1.40
2019-03-16T19:35:05.128Z,1.87
2019-03-16T19:37:33.534Z,1.30
2019-03-16T19:40:01.639Z,1.70
2019-03-16T19:42:29.979Z,1.80
2019-03-16T19:44:58.070Z,2.07
2019-03-16T19:47:26.159Z,1.17
2019-03-16T19:49:54.246Z,1.30
2019-03-16T19:52:22.348Z,0.97
2019-03-16T19:54:50.430Z,0.87
2019-03-16T19:57:18.517Z,0.63
2019-03-16T19:59:46.601Z,1.00
2019-03-16T20:02:14.701Z,0.80
2019-03-16T20:04:42.789Z,0.80
2019-03-16T20:07:19.141Z,0.80
2019-03-16T20:09:40.697Z,0.70
2019-03-16T20:12:08.794Z,1.80
2019-03-16T20:14:37.129Z,0.70
2019-03-16T20:17:05.485Z,0.53
2019-03-16T20:19:33.573Z,0.60
2019-03-16T20:22:02.167Z,0.87
2019-03-16T20:24:30.249Z,0.83
2019-03-16T20:26:58.358Z,1.00
2019-03-16T20:29:26.488Z,0.70
2019-03-16T20:31:54.847Z,1.73
2019-03-16T20:34:22.925Z,0.60
2019-03-16T20:36:51.009Z,0.87
2019-03-16T20:39:19.089Z,1.00
2019-03-16T20:41:47.434Z,0.90
2019-03-16T20:44:15.521Z,0.80
2019-03-16T20:46:43.865Z,0.90
2019-03-16T20:49:11.946Z,0.80
2019-03-16T20:51:40.049Z,0.70
2019-03-16T20:54:08.213Z,0.80
2019-03-16T20:56:36.391Z,1.27
2019-03-16T20:59:04.463Z,1.03
2019-03-16T21:01:32.908Z,1.23
2019-03-16T21:04:01.422Z,1.10
2019-03-16T21:06:29.586Z,0.60
2019-03-16T21:09:03.212Z,0.67
2019-03-16T21:11:27.489Z,0.60
2019-03-16T21:13:55.570Z,0.70
2019-03-16T21:16:23.661Z,0.50
2019-03-16T21:18:51.745Z,0.57
2019-03-16T21:21:20.098Z,1.00
2019-03-16T21:23:48.234Z,0.60
2019-03-16T21:26:16.385Z,0.83
2019-03-16T21:28:44.514Z,0.80
2019-03-16T21:31:12.890Z,0.60
2019-03-16T21:33:41.033Z,0.63
2019-03-16T21:36:09.421Z,0.57
2019-03-16T21:38:37.561Z,0.70
2019-03-16T21:41:05.685Z,0.70
2019-03-16T21:43:33.841Z,0.70
2019-03-16T21:46:01.985Z,0.70
2019-03-16T21:48:30.114Z,0.53
2019-03-16T21:50:58.242Z,0.70
2019-03-16T21:53:26.626Z,0.77
2019-03-16T21:55:54.756Z,0.50
2019-03-16T21:58:22.895Z,0.70
2019-03-16T22:00:51.025Z,0.53
2019-03-16T22:03:19.414Z,1.00
2019-03-16T22:05:47.541Z,0.50
2019-03-16T22:08:15.685Z,0.60
2019-03-16T22:10:44.065Z,0.60
2019-03-16T22:13:12.206Z,0.60
2019-03-16T22:15:40.337Z,0.50
2019-03-16T22:18:08.732Z,0.53
2019-03-16T22:20:36.853Z,0.70
2019-03-16T22:23:06.330Z,0.80
2019-03-16T22:25:34.704Z,0.60
2019-03-16T22:28:02.902Z,0.50
2019-03-16T22:30:31.046Z,0.70
2019-03-16T22:32:59.181Z,0.70
2019-03-16T22:35:27.554Z,0.53
2019-03-16T22:37:55.934Z,0.80
2019-03-16T22:40:24.068Z,0.60
2019-03-16T22:42:52.201Z,0.70
2019-03-16T22:45:20.325Z,0.50
2019-03-16T22:47:48.466Z,0.73
2019-03-16T22:50:17.574Z,0.83
2019-03-16T22:52:45.722Z,0.70
2019-03-16T22:55:15.842Z,0.70
2019-03-16T22:57:43.706Z,0.77
2019-03-16T23:00:13.626Z,0.83
2019-03-16T23:02:41.757Z,0.60
2019-03-16T23:05:10.461Z,0.60
2019-03-16T23:07:38.593Z,0.90
2019-03-16T23:10:08.493Z,0.90
2019-03-16T23:12:36.628Z,0.70
2019-03-16T23:15:06.683Z,0.90
2019-03-16T23:17:35.066Z,0.90
2019-03-16T23:20:04.017Z,1.20
2019-03-16T23:22:32.410Z,1.20
2019-03-16T23:25:00.537Z,0.70
2019-03-16T23:27:28.938Z,0.90
2019-03-16T23:29:57.072Z,0.60
2019-03-16T23:32:25.198Z,0.87
2019-03-16T23:34:53.333Z,0.70
2019-03-16T23:37:21.465Z,0.80
2019-03-16T23:39:49.870Z,0.60
2019-03-16T23:42:18.238Z,0.77
2019-03-16T23:44:46.361Z,0.90
2019-03-16T23:47:14.509Z,0.63
2019-03-16T23:49:42.648Z,0.47
2019-03-16T23:52:10.756Z,0.50
2019-03-16T23:54:38.970Z,0.60
2019-03-16T23:57:07.092Z,0.60
2019-03-16T23:59:35.232Z,0.80
